createdAt,value
2022-10-10T00:00:54.173Z,14.62
2022-10-10T00:03:27.439Z,14.61
2022-10-10T00:06:00.223Z,14.57
2022-10-10T00:08:33.619Z,14.55
2022-10-10T00:11:07.220Z,14.52
2022-10-10T00:13:40.826Z,14.51
2022-10-10T00:16:14.415Z,14.48
2022-10-10T00:18:47.753Z,14.50
2022-10-10T00:21:22.480Z,14.50
2022-10-10T00:23:55.724Z,14.49
2022-10-10T00:26:29.987Z,14.47
2022-10-10T00:29:01.990Z,14.44
2022-10-10T00:31:35.713Z,14.43
2022-10-10T00:34:09.062Z,14.40
2022-10-10T00:36:41.915Z,14.37
2022-10-10T00:39:14.803Z,14.40
2022-10-10T00:41:47.885Z,14.44
2022-10-10T00:44:20.826Z,14.48
2022-10-10T00:46:54.653Z,14.52
2022-10-10T00:49:29.124Z,14.53
2022-10-10T00:52:03.014Z,14.54
2022-10-10T00:54:36.815Z,14.57
2022-10-10T00:57:13.382Z,14.59
2022-10-10T00:59:48.290Z,14.60
2022-10-10T01:02:21.227Z,14.62
2022-10-10T01:04:54.181Z,14.64
2022-10-10T01:07:32.286Z,14.65
2022-10-10T01:10:12.081Z,14.65
2022-10-10T01:13:01.778Z,14.63
2022-10-10T01:15:55.163Z,14.62
2022-10-10T01:18:39.395Z,14.63
2022-10-10T01:21:25.988Z,14.64
2022-10-10T01:24:36.276Z,14.64
2022-10-10T01:27:46.112Z,14.62
2022-10-10T01:30:23.369Z,14.55
2022-10-10T01:33:09.444Z,14.49
2022-10-10T01:35:50.233Z,14.47
2022-10-10T01:38:39.749Z,14.47
2022-10-10T01:41:25.935Z,14.46
2022-10-10T01:44:00.948Z,14.45
2022-10-10T01:46:35.095Z,14.49
2022-10-10T01:49:07.926Z,14.47
2022-10-10T01:51:57.637Z,14.46
2022-10-10T01:54:35.659Z,14.46
2022-10-10T01:57:52.439Z,14.45
2022-10-10T02:00:25.385Z,14.41
2022-10-10T02:03:15.472Z,14.38
2022-10-10T02:06:03.919Z,14.37
2022-10-10T02:08:50.325Z,14.34
2022-10-10T02:11:23.357Z,14.30
2022-10-10T02:14:21.855Z,14.27
2022-10-10T02:16:57.185Z,14.22
2022-10-10T02:19:31.375Z,14.18
2022-10-10T02:22:04.899Z,14.16
2022-10-10T02:24:38.250Z,14.15
2022-10-10T02:27:18.581Z,14.14
2022-10-10T02:29:52.345Z,14.15
2022-10-10T02:32:35.909Z,14.15
2022-10-10T02:35:19.462Z,14.15
2022-10-10T02:37:53.260Z,14.08
2022-10-10T02:40:32.341Z,14.05
2022-10-10T02:43:08.256Z,14.05
2022-10-10T02:45:42.143Z,14.04
2022-10-10T02:48:15.202Z,14.01
2022-10-10T02:50:48.413Z,14.00
2022-10-10T02:53:22.834Z,13.99
2022-10-10T02:55:55.891Z,13.99
2022-10-10T02:58:28.796Z,14.02
2022-10-10T03:01:01.941Z,14.00
2022-10-10T03:03:35.000Z,14.04
2022-10-10T03:06:09.357Z,14.06
2022-10-10T03:08:42.285Z,14.07
2022-10-10T03:11:16.912Z,14.09
2022-10-10T03:13:49.838Z,14.10
2022-10-10T03:16:23.683Z,14.08
2022-10-10T03:18:56.533Z,14.10
2022-10-10T03:21:29.342Z,14.15
2022-10-10T03:24:02.226Z,14.20
2022-10-10T03:26:35.042Z,14.25
2022-10-10T03:29:08.067Z,14.24
2022-10-10T03:31:41.156Z,14.20
2022-10-10T03:34:14.561Z,14.19
2022-10-10T03:36:48.117Z,14.16
2022-10-10T03:39:30.303Z,14.15
2022-10-10T03:42:03.223Z,14.13
2022-10-10T03:44:36.516Z,14.11
2022-10-10T03:47:09.198Z,14.10
2022-10-10T03:49:42.339Z,14.10
2022-10-10T03:52:15.102Z,14.07
2022-10-10T03:54:48.058Z,14.06
2022-10-10T03:57:21.729Z,14.07
2022-10-10T03:59:55.011Z,14.11
2022-10-10T04:02:29.264Z,14.14
2022-10-10T04:05:03.712Z,14.19
2022-10-10T04:07:37.467Z,14.19
2022-10-10T04:10:11.655Z,14.19
2022-10-10T04:12:44.546Z,14.20
2022-10-10T04:15:17.747Z,14.22
2022-10-10T04:17:51.078Z,14.22
2022-10-10T04:20:24.046Z,14.22
2022-10-10T04:22:56.683Z,14.22
2022-10-10T04:25:29.919Z,14.26
2022-10-10T04:28:02.772Z,14.28
2022-10-10T04:30:36.520Z,14.27
2022-10-10T04:33:09.916Z,14.25
2022-10-10T04:35:45.013Z,14.23
2022-10-10T04:38:20.077Z,14.19
2022-10-10T04:40:53.114Z,14.17
2022-10-10T04:43:26.579Z,14.14
2022-10-10T04:46:00.040Z,14.14
2022-10-10T04:48:33.015Z,14.15
2022-10-10T04:51:06.294Z,14.15
2022-10-10T04:53:39.902Z,14.16
2022-10-10T04:56:12.855Z,14.18
2022-10-10T04:58:45.905Z,14.19
2022-10-10T05:01:18.889Z,14.20
2022-10-10T05:03:52.836Z,14.19
2022-10-10T05:06:25.856Z,14.18
2022-10-10T05:08:59.561Z,14.19
2022-10-10T05:11:32.732Z,14.18
2022-10-10T05:14:06.932Z,14.19
2022-10-10T05:16:40.516Z,14.24
2022-10-10T05:19:13.300Z,14.27
2022-10-10T05:21:47.661Z,14.26
2022-10-10T05:24:20.223Z,14.25
2022-10-10T05:26:53.082Z,14.23
2022-10-10T05:29:26.557Z,14.24
2022-10-10T05:32:00.054Z,14.28
2022-10-10T05:34:33.098Z,14.33
2022-10-10T05:37:06.016Z,14.35
2022-10-10T05:39:39.176Z,14.37
2022-10-10T05:42:14.312Z,14.41
2022-10-10T05:44:47.078Z,14.43
2022-10-10T05:47:23.087Z,14.44
2022-10-10T05:49:54.296Z,14.42
2022-10-10T05:52:29.003Z,14.40
2022-10-10T05:55:01.956Z,14.38
2022-10-10T05:57:34.820Z,14.33
2022-10-10T06:00:09.738Z,14.29
2022-10-10T06:02:42.810Z,14.25
2022-10-10T06:05:15.583Z,14.23
2022-10-10T06:08:09.278Z,14.24
2022-10-10T06:10:23.424Z,14.26
2022-10-10T06:12:56.223Z,14.26
2022-10-10T06:15:29.593Z,14.29
2022-10-10T06:18:03.382Z,14.33
2022-10-10T06:20:39.978Z,14.35
2022-10-10T06:23:12.583Z,14.33
2022-10-10T06:25:45.561Z,14.29
2022-10-10T06:28:18.585Z,14.29
2022-10-10T06:30:52.358Z,14.31
2022-10-10T06:33:25.523Z,14.29
2022-10-10T06:35:59.462Z,14.26
2022-10-10T06:38:32.479Z,14.25
2022-10-10T06:41:06.871Z,14.24
2022-10-10T06:43:41.597Z,14.26
2022-10-10T06:46:14.997Z,14.26
2022-10-10T06:48:47.952Z,14.27
2022-10-10T06:51:20.908Z,14.30
2022-10-10T06:53:53.704Z,14.32
2022-10-10T06:56:28.075Z,14.33
2022-10-10T06:59:01.286Z,14.32
2022-10-10T07:01:34.214Z,14.34
2022-10-10T07:04:07.132Z,14.35
2022-10-10T07:06:40.128Z,14.37
2022-10-10T07:09:13.201Z,14.39
2022-10-10T07:11:46.362Z,14.42
2022-10-10T07:14:20.031Z,14.47
2022-10-10T07:16:52.872Z,14.46
2022-10-10T07:19:25.706Z,14.45
2022-10-10T07:21:58.617Z,14.45
2022-10-10T07:24:31.753Z,14.45
2022-10-10T07:27:08.593Z,14.45
2022-10-10T07:29:41.692Z,14.45
2022-10-10T07:32:14.588Z,14.42
2022-10-10T07:34:47.463Z,14.38
2022-10-10T07:37:20.698Z,14.34
2022-10-10T07:39:56.851Z,14.26
2022-10-10T07:42:29.687Z,14.17
2022-10-10T07:45:03.070Z,14.08
2022-10-10T07:47:36.317Z,14.01
2022-10-10T07:50:11.824Z,13.92
2022-10-10T07:52:45.003Z,13.88
2022-10-10T07:55:18.864Z,13.83
2022-10-10T07:57:53.595Z,13.82
2022-10-10T08:00:26.471Z,13.80
2022-10-10T08:02:59.588Z,13.80
2022-10-10T08:05:32.908Z,13.80
2022-10-10T08:08:08.074Z,13.79
2022-10-10T08:10:45.599Z,13.79
2022-10-10T08:13:18.361Z,13.80
2022-10-10T08:15:55.181Z,13.82
2022-10-10T08:18:28.433Z,13.82
2022-10-10T08:21:10.123Z,13.81
2022-10-10T08:23:46.526Z,13.82
2022-10-10T08:26:24.670Z,13.84
2022-10-10T08:29:08.089Z,13.85
2022-10-10T08:31:59.640Z,13.85
2022-10-10T08:34:33.599Z,13.90
2022-10-10T08:37:06.752Z,13.92
2022-10-10T08:39:40.213Z,13.93
2022-10-10T08:42:20.940Z,13.99
2022-10-10T08:45:00.763Z,14.01
2022-10-10T08:48:03.110Z,14.02
2022-10-10T08:50:49.537Z,14.06
2022-10-10T08:53:33.058Z,14.11
2022-10-10T08:56:08.886Z,14.17
2022-10-10T08:58:46.249Z,14.19
2022-10-10T09:01:28.676Z,14.23
2022-10-10T09:04:05.204Z,14.24
2022-10-10T09:07:02.084Z,14.30
2022-10-10T09:09:52.249Z,14.37
2022-10-10T09:12:47.948Z,14.43
2022-10-10T09:15:28.311Z,14.53
2022-10-10T09:18:24.525Z,14.62
2022-10-10T09:21:12.946Z,14.65
2022-10-10T09:24:03.531Z,14.67
2022-10-10T09:26:44.575Z,14.68
2022-10-10T09:29:33.950Z,14.73
2022-10-10T09:32:27.168Z,14.74
2022-10-10T09:35:06.079Z,14.76
2022-10-10T09:37:47.533Z,14.84
2022-10-10T09:40:36.327Z,14.90
2022-10-10T09:43:17.525Z,14.96
2022-10-10T09:45:57.332Z,14.99
2022-10-10T09:48:45.781Z,15.02
2022-10-10T09:51:20.920Z,15.07
2022-10-10T09:53:54.295Z,15.10
2022-10-10T09:56:33.489Z,15.09
2022-10-10T09:59:06.397Z,15.11
2022-10-10T10:01:41.425Z,15.13
2022-10-10T10:04:28.416Z,15.12
2022-10-10T10:07:06.457Z,15.07
2022-10-10T10:09:42.905Z,15.00
2022-10-10T10:12:16.100Z,14.98
2022-10-10T10:14:49.383Z,14.94
2022-10-10T10:17:36.271Z,14.88
2022-10-10T10:20:34.920Z,14.83
2022-10-10T10:23:25.710Z,14.76
2022-10-10T10:26:09.065Z,14.69
2022-10-10T10:28:44.313Z,14.60
2022-10-10T10:31:35.832Z,14.60
2022-10-10T10:34:30.412Z,14.58
2022-10-10T10:37:29.492Z,14.58
2022-10-10T10:40:12.989Z,14.59
2022-10-10T10:43:35.650Z,14.60
2022-10-10T10:46:21.854Z,14.57
2022-10-10T10:49:25.900Z,14.58
2022-10-10T10:52:18.096Z,14.59
2022-10-10T10:55:19.982Z,14.61
2022-10-10T11:01:24.135Z,14.54
2022-10-10T11:05:21.052Z,14.51
2022-10-10T11:07:30.118Z,14.51
2022-10-10T11:10:05.082Z,14.54
2022-10-10T11:13:06.795Z,14.53
2022-10-10T11:16:05.417Z,14.54
2022-10-10T11:18:32.788Z,14.45
2022-10-10T11:21:10.113Z,14.38
2022-10-10T11:24:10.033Z,14.33
2022-10-10T11:26:51.042Z,14.30
2022-10-10T11:29:34.587Z,14.22
2022-10-10T11:32:16.770Z,14.16
2022-10-10T11:35:10.162Z,14.10
2022-10-10T11:37:46.783Z,14.05
2022-10-10T11:40:44.962Z,14.01
2022-10-10T11:43:44.579Z,13.96
2022-10-10T11:46:47.439Z,13.89
2022-10-10T11:49:39.780Z,13.90
2022-10-10T11:52:50.393Z,13.91
2022-10-10T11:55:42.956Z,13.86
2022-10-10T11:58:21.364Z,13.80
2022-10-10T12:01:14.237Z,13.71
2022-10-10T12:03:47.390Z,13.67
2022-10-10T12:06:37.542Z,13.67
2022-10-10T12:09:18.148Z,13.64
2022-10-10T12:12:01.186Z,13.59
2022-10-10T12:14:38.590Z,13.55
2022-10-10T12:17:24.649Z,13.51
2022-10-10T12:19:57.977Z,13.49
2022-10-10T12:22:31.783Z,13.50
2022-10-10T12:25:21.440Z,13.48
2022-10-10T12:28:18.914Z,13.42
2022-10-10T12:31:10.926Z,13.31
2022-10-10T12:33:50.524Z,13.23
2022-10-10T12:36:30.755Z,13.18
2022-10-10T12:39:09.530Z,13.19
2022-10-10T12:41:57.696Z,13.17
2022-10-10T12:44:46.543Z,13.21
2022-10-10T12:47:59.897Z,13.26
2022-10-10T12:50:32.777Z,13.24
2022-10-10T12:53:18.440Z,13.23
2022-10-10T12:55:58.406Z,13.18
2022-10-10T12:58:41.009Z,13.14
2022-10-10T13:01:30.402Z,13.11
2022-10-10T13:04:03.696Z,13.11
2022-10-10T13:06:40.148Z,13.09
2022-10-10T13:09:22.071Z,13.08
2022-10-10T13:12:04.364Z,13.07
2022-10-10T13:14:44.498Z,13.04
2022-10-10T13:17:30.950Z,13.03
2022-10-10T13:20:07.460Z,13.05
2022-10-10T13:22:42.990Z,13.00
2022-10-10T13:25:18.723Z,12.93
2022-10-10T13:27:52.067Z,12.93
2022-10-10T13:30:26.890Z,12.94
2022-10-10T13:33:00.400Z,12.90
2022-10-10T13:35:33.439Z,12.85
2022-10-10T13:38:08.267Z,12.87
2022-10-10T13:40:44.892Z,12.83
2022-10-10T13:43:21.876Z,12.85
2022-10-10T13:45:59.662Z,12.89
2022-10-10T13:48:40.870Z,12.87
2022-10-10T13:51:15.851Z,12.85
2022-10-10T13:53:54.002Z,12.80
2022-10-10T13:56:32.350Z,12.74
2022-10-10T13:59:09.652Z,12.72
2022-10-10T14:01:46.248Z,12.72
2022-10-10T14:04:35.637Z,12.69
2022-10-10T14:07:25.204Z,12.68
2022-10-10T14:10:08.201Z,12.66
2022-10-10T14:12:45.482Z,12.66
2022-10-10T14:15:38.399Z,12.72
2022-10-10T14:18:23.521Z,12.74
2022-10-10T14:20:56.684Z,12.73
2022-10-10T14:23:29.835Z,12.71
2022-10-10T14:26:03.123Z,12.66
2022-10-10T14:28:39.204Z,12.61
2022-10-10T14:31:14.072Z,12.60
2022-10-10T14:33:46.872Z,12.55
2022-10-10T14:36:20.200Z,12.49
2022-10-10T14:38:53.345Z,12.42
2022-10-10T14:41:26.345Z,12.38
2022-10-10T14:43:59.773Z,12.37
2022-10-10T14:46:32.914Z,12.37
2022-10-10T14:49:09.796Z,12.30
2022-10-10T14:51:41.671Z,12.25
2022-10-10T14:54:14.562Z,12.21
2022-10-10T14:57:09.373Z,12.19
2022-10-10T14:59:47.600Z,12.18
2022-10-10T15:01:57.366Z,12.18
2022-10-10T15:04:30.548Z,12.17
2022-10-10T15:07:16.374Z,12.13
2022-10-10T15:09:44.916Z,12.10
2022-10-10T15:12:14.556Z,12.06
2022-10-10T15:14:52.224Z,12.02
2022-10-10T15:17:26.623Z,11.98
2022-10-10T15:19:59.687Z,11.94
2022-10-10T15:22:34.118Z,11.89
2022-10-10T15:25:08.808Z,11.84
2022-10-10T15:27:41.778Z,11.83
2022-10-10T15:30:15.232Z,11.82
2022-10-10T15:32:50.108Z,11.81
2022-10-10T15:35:25.621Z,11.77
2022-10-10T15:38:01.120Z,11.75
2022-10-10T15:40:33.957Z,11.71
2022-10-10T15:43:10.510Z,11.69
2022-10-10T15:45:55.886Z,11.69
2022-10-10T15:48:23.698Z,11.67
2022-10-10T15:50:56.510Z,11.67
2022-10-10T15:53:31.381Z,11.68
2022-10-10T15:56:11.391Z,11.70
2022-10-10T15:58:45.508Z,11.72
2022-10-10T16:01:21.748Z,11.73
2022-10-10T16:03:55.929Z,11.70
2022-10-10T16:06:30.263Z,11.70
2022-10-10T16:09:26.647Z,11.72
2022-10-10T16:11:39.180Z,11.71
2022-10-10T16:14:12.611Z,11.72
2022-10-10T16:16:46.017Z,11.71
2022-10-10T16:19:19.015Z,11.72
2022-10-10T16:21:55.475Z,11.74
2022-10-10T16:24:28.275Z,11.78
2022-10-10T16:27:03.736Z,11.81
2022-10-10T16:29:38.843Z,11.81
2022-10-10T16:32:14.627Z,11.81
2022-10-10T16:34:51.832Z,11.82
2022-10-10T16:37:27.537Z,11.86
2022-10-10T16:40:00.615Z,11.89
2022-10-10T16:42:36.760Z,11.91
2022-10-10T16:45:11.181Z,11.94
2022-10-10T16:47:48.901Z,11.97
2022-10-10T16:50:22.973Z,12.00
2022-10-10T16:52:56.709Z,12.01
2022-10-10T16:55:33.246Z,12.00
2022-10-10T16:58:09.775Z,12.01
2022-10-10T17:00:46.778Z,12.01
2022-10-10T17:03:22.641Z,12.01
2022-10-10T17:06:22.918Z,12.00
2022-10-10T17:09:00.886Z,12.01
2022-10-10T17:11:39.419Z,12.02
2022-10-10T17:14:14.447Z,12.02
2022-10-10T17:19:53.093Z,11.98
2022-10-10T17:22:27.597Z,11.92
2022-10-10T17:25:05.451Z,11.88
2022-10-10T17:27:44.681Z,11.86
2022-10-10T17:30:24.647Z,11.85
2022-10-10T17:33:00.003Z,11.83
2022-10-10T17:35:37.820Z,11.82
2022-10-10T17:38:38.394Z,11.83
2022-10-10T17:41:02.770Z,11.83
2022-10-10T17:43:39.706Z,11.79
2022-10-10T17:46:35.297Z,11.77
2022-10-10T17:49:06.117Z,11.77
2022-10-10T17:51:43.720Z,11.70
2022-10-10T17:54:19.064Z,11.63
2022-10-10T17:56:53.642Z,11.60
2022-10-10T17:59:27.653Z,11.57
2022-10-10T18:02:01.748Z,11.54
2022-10-10T18:04:35.712Z,11.52
2022-10-10T18:07:10.175Z,11.51
2022-10-10T18:09:45.621Z,11.48
2022-10-10T18:12:20.811Z,11.48
2022-10-10T18:14:54.987Z,11.44
2022-10-10T18:17:30.130Z,11.40
2022-10-10T18:20:02.906Z,11.37
2022-10-10T18:22:37.331Z,11.31
2022-10-10T18:25:12.252Z,11.30
2022-10-10T18:27:46.682Z,11.29
2022-10-10T18:30:20.732Z,11.25
2022-10-10T18:32:55.037Z,11.21
2022-10-10T18:35:28.131Z,11.16
2022-10-10T18:38:01.092Z,11.11
2022-10-10T18:40:34.262Z,11.08
2022-10-10T18:43:07.703Z,11.07
2022-10-10T18:45:41.670Z,11.00
2022-10-10T18:48:14.803Z,10.95
2022-10-10T18:50:47.519Z,10.90
2022-10-10T18:53:20.457Z,10.81
2022-10-10T18:56:01.440Z,10.77
2022-10-10T18:58:37.718Z,10.73
2022-10-10T19:01:18.221Z,10.66
2022-10-10T19:03:51.736Z,10.62
2022-10-10T19:06:26.928Z,10.57
2022-10-10T19:09:01.838Z,10.53
2022-10-10T19:11:42.276Z,10.48
2022-10-10T19:14:18.804Z,10.45
2022-10-10T19:16:52.182Z,10.46
2022-10-10T19:19:25.493Z,10.47
2022-10-10T19:21:58.544Z,10.48
2022-10-10T19:24:32.024Z,10.44
2022-10-10T19:27:05.661Z,10.41
2022-10-10T19:29:38.872Z,10.39
2022-10-10T19:32:11.827Z,10.36
2022-10-10T19:34:45.981Z,10.34
2022-10-10T19:37:20.329Z,10.31
2022-10-10T19:39:52.466Z,10.27
2022-10-10T19:42:25.531Z,10.23
2022-10-10T19:44:59.150Z,10.21
2022-10-10T19:47:32.151Z,10.19
2022-10-10T19:50:05.045Z,10.17
2022-10-10T19:52:38.875Z,10.16
2022-10-10T19:55:12.110Z,10.13
2022-10-10T19:57:44.835Z,10.09
2022-10-10T20:00:18.588Z,10.04
2022-10-10T20:02:51.383Z,9.98
2022-10-10T20:05:24.559Z,9.96
2022-10-10T20:07:57.439Z,9.97
2022-10-10T20:10:32.576Z,9.98
2022-10-10T20:13:06.117Z,9.95
2022-10-10T20:15:44.973Z,9.91
2022-10-10T20:18:21.055Z,9.88
2022-10-10T20:20:55.067Z,9.87
2022-10-10T20:23:28.231Z,9.86
2022-10-10T20:26:01.950Z,9.84
2022-10-10T20:28:34.916Z,9.82
2022-10-10T20:31:14.624Z,9.81
2022-10-10T20:33:50.382Z,9.77
2022-10-10T20:36:24.564Z,9.75
2022-10-10T20:39:04.923Z,9.74
2022-10-10T20:41:40.611Z,9.71
2022-10-10T20:44:15.816Z,9.68
2022-10-10T20:46:50.185Z,9.64
2022-10-10T20:49:24.414Z,9.58
2022-10-10T20:51:58.406Z,9.53
2022-10-10T20:54:31.425Z,9.51
2022-10-10T20:57:04.675Z,9.54
2022-10-10T20:59:38.866Z,9.53
2022-10-10T21:02:19.249Z,9.52
2022-10-10T21:04:49.620Z,9.49
2022-10-10T21:07:22.810Z,9.47
2022-10-10T21:09:55.663Z,9.47
2022-10-10T21:12:28.986Z,9.51
2022-10-10T21:15:03.664Z,9.50
2022-10-10T21:17:36.729Z,9.48
2022-10-10T21:20:11.252Z,9.46
2022-10-10T21:22:45.421Z,9.45
2022-10-10T21:25:18.675Z,9.46
2022-10-10T21:27:51.609Z,9.47
2022-10-10T21:30:29.534Z,9.47
2022-10-10T21:33:01.031Z,9.45
2022-10-10T21:35:36.473Z,9.42
2022-10-10T21:38:09.461Z,9.41
2022-10-10T21:40:43.091Z,9.40
2022-10-10T21:43:16.641Z,9.41
2022-10-10T21:45:49.760Z,9.43
2022-10-10T21:48:22.968Z,9.45
2022-10-10T21:51:01.076Z,9.44
2022-10-10T21:53:34.123Z,9.43
2022-10-10T21:56:09.518Z,9.41
2022-10-10T21:58:45.443Z,9.44
2022-10-10T22:01:22.102Z,9.45
2022-10-10T22:03:56.611Z,9.44
2022-10-10T22:06:29.396Z,9.45
2022-10-10T22:09:04.229Z,9.45
2022-10-10T22:11:37.755Z,9.48
2022-10-10T22:14:11.202Z,9.46
2022-10-10T22:16:44.602Z,9.47
2022-10-10T22:19:17.918Z,9.48
2022-10-10T22:21:50.758Z,9.50
2022-10-10T22:24:23.499Z,9.50
2022-10-10T22:26:56.596Z,9.51
2022-10-10T22:29:29.560Z,9.51
2022-10-10T22:32:02.791Z,9.51
2022-10-10T22:34:36.950Z,9.49
2022-10-10T22:37:10.162Z,9.50
2022-10-10T22:39:43.309Z,9.53
2022-10-10T22:42:16.287Z,9.54
2022-10-10T22:44:49.083Z,9.56
2022-10-10T22:47:22.279Z,9.58
2022-10-10T22:49:55.371Z,9.59
2022-10-10T22:52:29.030Z,9.60
2022-10-10T22:55:02.380Z,9.62
2022-10-10T22:57:37.239Z,9.62
2022-10-10T23:00:12.070Z,9.64
2022-10-10T23:02:45.172Z,9.67
2022-10-10T23:05:18.227Z,9.70
2022-10-10T23:07:52.989Z,9.72
2022-10-10T23:10:26.003Z,9.74
2022-10-10T23:12:59.467Z,9.76
2022-10-10T23:15:33.253Z,9.80
2022-10-10T23:18:06.671Z,9.82
2022-10-10T23:20:40.130Z,9.85
2022-10-10T23:23:13.031Z,9.88
2022-10-10T23:25:48.032Z,9.89
2022-10-10T23:28:21.054Z,9.92
2022-10-10T23:30:54.207Z,9.94
2022-10-10T23:33:27.068Z,9.95
2022-10-10T23:36:08.189Z,10.01
2022-10-10T23:38:41.897Z,10.06
2022-10-10T23:41:15.157Z,10.07
2022-10-10T23:43:48.752Z,10.08
2022-10-10T23:46:21.612Z,10.10
2022-10-10T23:48:54.524Z,10.11
2022-10-10T23:51:29.402Z,10.12
2022-10-10T23:54:02.212Z,10.12
2022-10-10T23:56:35.149Z,10.13
2022-10-10T23:59:08.060Z,10.16
